createdAt,value
2023-02-17T00:00:40.213Z,4.23
2023-02-17T00:03:07.582Z,3.97
2023-02-17T00:05:35.063Z,2.97
2023-02-17T00:08:02.626Z,3.47
2023-02-17T00:10:30.284Z,4.30
2023-02-17T00:12:57.749Z,2.90
2023-02-17T00:15:26.517Z,5.43
2023-02-17T00:17:53.971Z,3.30
2023-02-17T00:20:21.425Z,3.13
2023-02-17T00:22:48.918Z,3.37
2023-02-17T00:25:16.477Z,3.10
2023-02-17T00:27:43.854Z,3.20
2023-02-17T00:30:11.845Z,2.57
2023-02-17T00:32:40.571Z,3.13
2023-02-17T00:35:08.311Z,3.93
2023-02-17T00:37:35.926Z,2.83
2023-02-17T00:40:03.571Z,3.20
2023-02-17T00:42:31.002Z,2.90
2023-02-17T00:44:59.998Z,2.63
2023-02-17T00:47:27.389Z,3.23
2023-02-17T00:49:56.279Z,2.67
2023-02-17T00:52:23.760Z,2.77
2023-02-17T00:54:51.237Z,3.37
2023-02-17T00:57:18.662Z,2.83
2023-02-17T00:59:46.153Z,2.20
2023-02-17T01:02:13.796Z,2.77
2023-02-17T01:04:41.256Z,3.67
2023-02-17T01:07:10.032Z,3.77
2023-02-17T01:09:37.709Z,2.27
2023-02-17T01:12:05.168Z,3.97
2023-02-17T01:14:32.521Z,2.37
2023-02-17T01:16:59.928Z,2.47
2023-02-17T01:19:29.138Z,2.67
2023-02-17T01:21:56.522Z,3.27
2023-02-17T01:24:25.310Z,3.10
2023-02-17T01:26:52.711Z,2.40
2023-02-17T01:29:20.096Z,2.87
2023-02-17T01:31:47.818Z,3.47
2023-02-17T01:34:15.280Z,3.57
2023-02-17T01:36:42.660Z,2.17
2023-02-17T01:39:11.707Z,3.33
2023-02-17T01:41:40.448Z,3.00
2023-02-17T01:44:10.719Z,3.20
2023-02-17T01:46:38.718Z,1.37
2023-02-17T01:49:13.585Z,2.20
2023-02-17T01:51:41.087Z,2.67
2023-02-17T01:54:10.146Z,2.43
2023-02-17T01:56:41.013Z,2.13
2023-02-17T01:59:11.456Z,2.87
2023-02-17T02:01:39.692Z,2.80
2023-02-17T02:04:07.345Z,2.33
2023-02-17T02:06:35.592Z,2.53
2023-02-17T02:09:05.067Z,3.97
2023-02-17T02:11:32.610Z,2.10
2023-02-17T02:14:01.601Z,3.80
2023-02-17T02:16:31.263Z,2.20
2023-02-17T02:19:05.537Z,2.83
2023-02-17T02:21:47.929Z,2.03
2023-02-17T02:24:18.590Z,2.83
2023-02-17T02:27:05.406Z,4.20
2023-02-17T02:29:53.929Z,2.83
2023-02-17T02:32:37.004Z,2.87
2023-02-17T02:35:07.673Z,2.30
2023-02-17T02:37:37.127Z,3.00
2023-02-17T02:40:07.235Z,1.87
2023-02-17T02:42:36.076Z,3.93
2023-02-17T02:45:03.564Z,2.43
2023-02-17T02:47:41.296Z,2.83
2023-02-17T02:50:10.535Z,1.97
2023-02-17T02:52:40.597Z,2.83
2023-02-17T02:55:13.012Z,3.73
2023-02-17T02:57:47.887Z,3.60
2023-02-17T03:00:20.552Z,3.03
2023-02-17T03:02:52.459Z,2.07
2023-02-17T03:05:26.127Z,2.67
2023-02-17T03:07:56.470Z,1.93
2023-02-17T03:10:24.083Z,1.70
2023-02-17T03:12:51.656Z,2.70
2023-02-17T03:15:21.057Z,1.73
2023-02-17T03:17:49.795Z,2.30
2023-02-17T03:20:17.521Z,2.50
2023-02-17T03:22:48.053Z,3.47
2023-02-17T03:25:16.354Z,1.37
2023-02-17T03:27:44.842Z,2.73
2023-02-17T03:30:13.053Z,1.97
2023-02-17T03:32:40.456Z,2.87
2023-02-17T03:35:09.417Z,3.87
2023-02-17T03:37:36.969Z,2.47
2023-02-17T03:40:04.622Z,3.47
2023-02-17T03:42:32.020Z,1.17
2023-02-17T03:44:59.418Z,3.67
2023-02-17T03:47:26.906Z,4.23
2023-02-17T03:49:54.345Z,2.93
2023-02-17T03:52:23.009Z,3.10
2023-02-17T03:54:50.405Z,3.00
2023-02-17T03:57:17.888Z,3.40
2023-02-17T03:59:45.312Z,2.60
2023-02-17T04:02:12.851Z,2.87
2023-02-17T04:04:40.252Z,3.23
2023-02-17T04:07:07.585Z,2.83
2023-02-17T04:09:36.300Z,2.23
2023-02-17T04:12:03.780Z,2.30
2023-02-17T04:14:31.144Z,2.43
2023-02-17T04:16:58.558Z,2.70
2023-02-17T04:19:25.951Z,3.97
2023-02-17T04:21:53.510Z,3.00
2023-02-17T04:24:20.931Z,3.13
2023-02-17T04:26:49.678Z,4.03
2023-02-17T04:29:17.040Z,2.27
2023-02-17T04:31:44.520Z,1.60
2023-02-17T04:34:11.955Z,3.43
2023-02-17T04:36:39.349Z,2.70
2023-02-17T04:39:06.727Z,2.23
2023-02-17T04:41:34.057Z,2.73
2023-02-17T04:44:02.746Z,2.30
2023-02-17T04:46:30.179Z,1.87
2023-02-17T04:48:57.663Z,3.07
2023-02-17T04:51:25.104Z,2.73
2023-02-17T04:53:52.498Z,3.00
2023-02-17T04:56:20.046Z,2.93
2023-02-17T04:58:47.424Z,2.60
2023-02-17T05:01:16.272Z,2.23
2023-02-17T05:03:43.835Z,2.10
2023-02-17T05:06:11.385Z,2.37
2023-02-17T05:08:38.739Z,2.50
2023-02-17T05:11:06.309Z,1.63
2023-02-17T05:13:34.093Z,3.10
2023-02-17T05:16:01.760Z,3.30
2023-02-17T05:18:30.515Z,1.97
2023-02-17T05:20:57.929Z,1.93
2023-02-17T05:23:25.399Z,0.70
2023-02-17T05:25:52.783Z,1.80
2023-02-17T05:28:20.134Z,1.67
2023-02-17T05:30:48.978Z,2.27
2023-02-17T05:33:16.397Z,2.57
2023-02-17T05:35:45.133Z,3.27
2023-02-17T05:38:12.522Z,2.80
2023-02-17T05:40:39.969Z,1.97
2023-02-17T05:43:07.409Z,2.77
2023-02-17T05:45:34.784Z,3.27
2023-02-17T05:48:02.168Z,4.67
2023-02-17T05:50:29.656Z,2.53
2023-02-17T05:53:04.492Z,3.87
2023-02-17T05:55:31.959Z,1.67
2023-02-17T05:57:59.352Z,3.30
2023-02-17T06:00:27.057Z,0.87
2023-02-17T06:02:54.556Z,2.00
2023-02-17T06:05:22.152Z,2.40
2023-02-17T06:07:49.568Z,4.50
2023-02-17T06:10:18.485Z,2.93
2023-02-17T06:12:45.862Z,2.67
2023-02-17T06:15:13.545Z,1.70
2023-02-17T06:17:40.966Z,2.43
2023-02-17T06:20:09.607Z,1.30
2023-02-17T06:22:37.013Z,3.53
2023-02-17T06:25:04.502Z,3.47
2023-02-17T06:27:33.247Z,3.40
2023-02-17T06:30:00.704Z,3.67
2023-02-17T06:32:28.786Z,2.23
2023-02-17T06:34:58.317Z,3.00
2023-02-17T06:37:25.863Z,1.80
2023-02-17T06:39:53.253Z,0.90
2023-02-17T06:42:20.619Z,1.87
2023-02-17T06:44:49.457Z,1.83
2023-02-17T06:47:16.932Z,2.57
2023-02-17T06:49:44.296Z,1.87
2023-02-17T06:52:11.752Z,1.80
2023-02-17T06:54:39.208Z,1.50
2023-02-17T06:57:06.643Z,1.77
2023-02-17T06:59:34.133Z,1.53
2023-02-17T07:02:03.042Z,3.43
2023-02-17T07:04:30.556Z,1.07
2023-02-17T07:06:58.033Z,2.43
2023-02-17T07:09:26.196Z,2.80
2023-02-17T07:11:53.657Z,2.53
2023-02-17T07:14:21.973Z,3.10
2023-02-17T07:16:51.930Z,2.57
2023-02-17T07:19:38.292Z,1.90
2023-02-17T07:22:23.865Z,1.70
2023-02-17T07:24:57.341Z,1.80
2023-02-17T07:27:37.798Z,1.63
2023-02-17T07:30:09.358Z,2.17
2023-02-17T07:36:18.644Z,1.50
2023-02-17T07:38:46.533Z,2.27
2023-02-17T07:41:15.173Z,2.13
2023-02-17T07:43:42.623Z,2.67
2023-02-17T07:46:10.984Z,1.43
2023-02-17T07:48:38.498Z,3.07
2023-02-17T07:51:07.249Z,2.77
2023-02-17T07:53:36.561Z,2.37
2023-02-17T07:56:04.301Z,1.20
2023-02-17T07:58:32.295Z,2.50
2023-02-17T08:01:00.079Z,2.33
2023-02-17T08:03:27.436Z,2.73
2023-02-17T08:05:56.184Z,2.00
2023-02-17T08:08:41.416Z,2.13
2023-02-17T08:11:30.023Z,1.80
2023-02-17T08:13:57.429Z,3.10
2023-02-17T08:16:26.892Z,1.60
2023-02-17T08:18:55.412Z,2.60
2023-02-17T08:21:23.063Z,1.73
2023-02-17T08:23:50.717Z,2.80
2023-02-17T08:26:19.791Z,3.10
2023-02-17T08:28:49.135Z,1.70
2023-02-17T08:31:17.451Z,2.90
2023-02-17T08:33:44.966Z,3.27
2023-02-17T08:36:12.792Z,2.70
2023-02-17T08:38:40.677Z,2.47
2023-02-17T08:41:18.341Z,1.10
2023-02-17T08:43:50.590Z,1.70
2023-02-17T08:46:19.732Z,2.03
2023-02-17T08:48:58.674Z,3.60
2023-02-17T08:52:06.241Z,2.37
2023-02-17T08:57:23.001Z,2.03
2023-02-17T08:59:51.850Z,2.67
2023-02-17T09:02:19.586Z,2.83
2023-02-17T09:04:47.606Z,0.93
2023-02-17T09:07:16.087Z,2.80
2023-02-17T09:09:44.084Z,2.67
2023-02-17T09:12:12.092Z,2.37
2023-02-17T09:14:39.954Z,2.23
2023-02-17T09:17:09.189Z,2.10
2023-02-17T09:19:39.554Z,1.33
2023-02-17T09:22:07.718Z,2.40
2023-02-17T09:24:38.578Z,1.13
2023-02-17T09:27:06.164Z,2.33
2023-02-17T09:29:33.532Z,1.97
2023-02-17T09:32:01.131Z,1.93
2023-02-17T09:34:30.003Z,0.47
2023-02-17T09:37:16.998Z,0.20
2023-02-17T09:39:44.605Z,0.80
2023-02-17T09:42:41.331Z,1.57
2023-02-17T09:45:34.135Z,0.50
2023-02-17T09:48:04.842Z,1.10
2023-02-17T09:50:39.197Z,1.00
2023-02-17T09:53:10.459Z,1.70
2023-02-17T09:55:40.108Z,2.30
2023-02-17T09:58:10.160Z,2.10
2023-02-17T10:00:40.840Z,3.57
2023-02-17T10:03:13.399Z,0.73
2023-02-17T10:05:46.368Z,0.83
2023-02-17T10:08:15.852Z,1.30
2023-02-17T10:10:45.769Z,2.03
2023-02-17T10:13:15.338Z,0.83
2023-02-17T10:15:44.619Z,1.70
2023-02-17T10:18:13.849Z,2.10
2023-02-17T10:20:42.418Z,1.93
2023-02-17T10:23:14.415Z,2.00
2023-02-17T10:25:58.478Z,1.83
2023-02-17T10:29:06.309Z,1.13
2023-02-17T10:32:14.184Z,1.03
2023-02-17T10:35:11.771Z,1.13
2023-02-17T10:38:04.739Z,1.57
2023-02-17T10:40:51.768Z,2.80
2023-02-17T10:43:33.400Z,0.70
2023-02-17T10:46:50.348Z,1.57
2023-02-17T10:49:26.254Z,1.30
2023-02-17T10:52:10.689Z,1.90
2023-02-17T10:54:40.966Z,2.23
2023-02-17T10:57:25.080Z,1.70
2023-02-17T10:59:57.300Z,0.77
2023-02-17T11:02:29.924Z,1.43
2023-02-17T11:05:05.402Z,1.23
2023-02-17T11:12:03.094Z,1.13
2023-02-17T11:14:40.685Z,1.67
2023-02-17T11:17:27.124Z,1.50
2023-02-17T11:19:57.214Z,0.53
2023-02-17T11:22:32.738Z,2.27
2023-02-17T11:25:01.753Z,1.43
2023-02-17T11:27:39.880Z,2.47
2023-02-17T11:33:35.943Z,2.90
2023-02-17T11:36:15.974Z,0.70
2023-02-17T11:38:45.881Z,1.53
2023-02-17T11:41:15.407Z,2.47
2023-02-17T11:44:09.863Z,1.83
2023-02-17T11:46:42.640Z,1.90
2023-02-17T11:49:44.453Z,2.43
2023-02-17T11:52:46.038Z,1.77
2023-02-17T11:55:33.772Z,0.80
2023-02-17T11:58:16.375Z,1.43
2023-02-17T12:01:28.973Z,0.97
2023-02-17T12:50:12.181Z,1.97
2023-02-17T12:54:35.961Z,1.47
2023-02-17T13:19:52.461Z,1.53
2023-02-17T13:22:36.165Z,1.37
2023-02-17T13:25:08.641Z,0.97
2023-02-17T13:30:43.385Z,1.10
2023-02-17T13:33:31.676Z,0.83
2023-02-17T13:36:14.870Z,0.67
2023-02-17T13:39:09.687Z,1.23
2023-02-17T13:41:47.256Z,0.20
2023-02-17T13:47:47.880Z,1.27
2023-02-17T13:50:34.431Z,1.30
2023-02-17T14:08:11.939Z,0.93
2023-02-17T14:33:29.332Z,0.90
2023-02-17T14:53:16.307Z,1.17
2023-02-17T14:56:05.056Z,1.00
2023-02-17T16:39:42.994Z,1.20
2023-02-17T16:51:57.197Z,2.23
2023-02-17T16:54:41.692Z,1.70
2023-02-17T16:57:33.919Z,1.27
2023-02-17T17:00:39.846Z,1.70
2023-02-17T17:04:04.673Z,1.40
2023-02-17T17:07:03.815Z,1.67
2023-02-17T17:25:36.080Z,1.60
2023-02-17T17:28:45.121Z,0.97
2023-02-17T17:34:57.864Z,0.20
2023-02-17T17:37:44.500Z,1.20
2023-02-17T17:40:36.295Z,1.40
2023-02-17T17:54:05.885Z,1.10
2023-02-17T17:57:11.847Z,1.03
2023-02-17T18:00:09.092Z,1.33
2023-02-17T18:10:25.973Z,0.37
2023-02-17T18:13:39.367Z,1.37
2023-02-17T18:17:14.788Z,0.43
2023-02-17T18:20:19.890Z,1.10
2023-02-17T18:27:17.376Z,0.97
2023-02-17T18:53:49.116Z,1.13
2023-02-17T18:56:49.139Z,0.30
2023-02-17T18:59:54.766Z,0.13
2023-02-17T19:11:06.882Z,0.80
2023-02-17T19:21:16.988Z,1.07
2023-02-17T19:31:05.247Z,0.20
2023-02-17T19:33:51.317Z,0.47
2023-02-17T19:36:19.561Z,0.10
2023-02-17T19:38:47.281Z,0.53
2023-02-17T19:41:15.420Z,0.47
2023-02-17T19:43:43.294Z,0.20
2023-02-17T19:46:12.357Z,0.20
2023-02-17T19:48:40.156Z,0.30
2023-02-17T19:51:09.862Z,1.20
2023-02-17T19:53:37.584Z,0.20
2023-02-17T19:56:11.947Z,0.13
2023-02-17T19:58:40.220Z,1.30
2023-02-17T20:01:08.419Z,0.43
2023-02-17T20:03:36.247Z,0.63
2023-02-17T20:06:05.343Z,0.23
2023-02-17T20:08:34.871Z,0.30
2023-02-17T20:11:07.633Z,0.20
2023-02-17T20:13:45.107Z,0.40
2023-02-17T20:16:14.747Z,0.60
2023-02-17T20:18:44.730Z,0.83
2023-02-17T20:21:14.688Z,0.67
2023-02-17T20:23:43.755Z,0.57
2023-02-17T20:26:13.044Z,0.87
2023-02-17T20:28:40.981Z,0.83
2023-02-17T20:31:08.919Z,0.10
2023-02-17T20:33:36.734Z,0.40
2023-02-17T20:36:04.462Z,0.50
2023-02-17T20:38:33.996Z,0.37
2023-02-17T20:41:03.048Z,0.20
2023-02-17T20:43:30.544Z,0.30
2023-02-17T20:45:58.923Z,0.73
2023-02-17T20:48:28.963Z,1.23
2023-02-17T20:50:56.925Z,0.37
2023-02-17T20:53:25.629Z,0.10
2023-02-17T20:55:54.745Z,0.37
2023-02-17T20:58:25.953Z,0.40
2023-02-17T21:00:55.573Z,0.53
2023-02-17T21:03:23.997Z,1.60
2023-02-17T21:05:52.563Z,0.27
2023-02-17T21:08:20.445Z,0.10
2023-02-17T21:10:48.303Z,0.30
2023-02-17T21:13:16.244Z,0.20
2023-02-17T21:15:47.491Z,0.10
2023-02-17T21:18:16.154Z,0.33
2023-02-17T21:20:44.165Z,0.33
2023-02-17T21:23:12.112Z,1.37
2023-02-17T21:25:40.512Z,0.40
2023-02-17T21:28:08.494Z,0.50
2023-02-17T21:30:37.920Z,0.50
2023-02-17T21:33:10.258Z,1.07
2023-02-17T21:35:39.845Z,2.20
2023-02-17T21:38:17.850Z,0.30
2023-02-17T21:40:47.896Z,0.53
2023-02-17T21:43:47.843Z,0.73
2023-02-17T21:46:16.890Z,0.50
2023-02-17T21:48:46.347Z,0.30
2023-02-17T21:51:14.067Z,0.57
2023-02-17T21:53:42.200Z,0.20
2023-02-17T21:56:10.345Z,0.23
2023-02-17T21:58:38.724Z,0.10
2023-02-17T22:01:08.841Z,0.30
2023-02-17T22:03:36.815Z,0.33
2023-02-17T22:06:14.707Z,0.50
2023-02-17T22:08:42.699Z,0.67
2023-02-17T22:11:14.328Z,0.87
2023-02-17T22:13:43.017Z,0.47
2023-02-17T22:16:11.376Z,0.33
2023-02-17T22:18:40.374Z,0.60
2023-02-17T22:21:09.395Z,0.60
2023-02-17T22:23:38.917Z,0.53
2023-02-17T22:26:08.555Z,0.77
2023-02-17T22:28:37.007Z,0.87
2023-02-17T22:31:06.138Z,0.77
2023-02-17T22:33:34.962Z,1.53
2023-02-17T22:36:06.054Z,0.53
2023-02-17T22:38:34.452Z,0.30
2023-02-17T22:41:05.582Z,0.80
2023-02-17T22:43:37.648Z,1.07
2023-02-17T22:46:06.531Z,0.50
2023-02-17T22:48:37.583Z,0.37
2023-02-17T22:51:08.416Z,0.87
2023-02-17T22:53:39.155Z,0.73
2023-02-17T22:56:09.994Z,0.50
2023-02-17T22:58:38.688Z,0.10
2023-02-17T23:01:08.546Z,0.13
2023-02-17T23:03:36.592Z,0.23
2023-02-17T23:06:05.475Z,0.50
2023-02-17T23:08:33.783Z,0.60
2023-02-17T23:11:04.827Z,0.73
2023-02-17T23:13:33.769Z,0.50
2023-02-17T23:16:03.868Z,0.47
2023-02-17T23:18:32.900Z,0.57
2023-02-17T23:21:01.122Z,0.27
2023-02-17T23:23:29.391Z,0.67
2023-02-17T23:25:57.861Z,0.17
2023-02-17T23:28:26.767Z,0.30
2023-02-17T23:30:58.025Z,1.10
2023-02-17T23:33:29.613Z,0.70
2023-02-17T23:36:02.580Z,0.60
2023-02-17T23:38:30.212Z,0.20
2023-02-17T23:41:02.180Z,0.30
2023-02-17T23:43:46.332Z,1.00
2023-02-17T23:46:42.283Z,0.43
2023-02-17T23:49:24.778Z,0.47
2023-02-17T23:51:53.454Z,0.80
2023-02-17T23:54:25.082Z,0.87
2023-02-17T23:56:53.136Z,0.63
2023-02-17T23:59:21.651Z,0.30
